Strona główna
METAR-TAF:

METAR-TAF

Lotnisko :

Port lotniczy Trollhättan-Vänersborg

Trollhättan-Vänersborg, Szwecja

Szerokość geograficzna: 58-19N, Długość geograficzna: 012-21E, wysokość: 41 m

Aktualna obserwacja pogody

Raport powstał 20 minut temu, godzina 05:20 UTC
Wiatr 1 kt z kierunków zmiennych
Temperatura 4°C
Wilgotność 60%
Ciśnienie 1017 hPa
Widzialność 10 km lub więcej

METAR: ESGT 090520Z AUTO VRB01KT 9999 NCD 04/M03 Q1017

czas: 07:40 (05:40 UTC)

Prognoza

Raport powstał 10 minut temu, godzina 05:30 UTC
Prognoza ważna od 09 godzina 06 UTC do 09 godzina 14 UTC
Wiatr 7 kt od północny zachód
Widzialność 10 km lub więcej
Brak chmur poniżej 1500 m i brak chmur cumulonimbus

TAF: ESGT 090530Z 0906/0914 31007KT CAVOK

Obserwacja i prognoza pogody dla ponad 4000 lotnisk (raport METAR i TAF).

Dostępne stacje oznaczono żółtymi i czerwonymi punktami na mapie.

Najedź kursorem aby zobaczyć nazwę stacji.

Kliknij aby zobaczyć obserwacje i prognozy pogody.

Aby zmienić mapę: kliknij na zielony przycisk z czarnym krzyżykiem, aby powiększyć; na zielony przycisk z myślnikiem, aby pomniejszyć; na zielone strzałki, aby przejść do map sąsiednich.


METAR-TAF: